Marietje Andrea — PBWR — position and weather

sailwx.info

Track history (hours):
 
Tides and Currents Weather Stations Pressure Air Temp Water Temp Dewpoint Dewpoint Depression Visibility Wind Speed Wind Dir Waves Ship Positions

Marietje Andrea

Last reported at 2018-Jun-23 00:23 UTC. Time now 2018-Jun-25 14:15 UTC.
Position N 54°30' W 000°27'.

Length 126 m; draft 7.2 m.

Type: Cargo ship. MMSI: 246649000.

Date/timePositionNaut miles runAvg speedWind from/ knotsBaromVisibWave heightAir tempDewpointWater temp
2018-Jun-23 00:23N 54°30' W 000°27'4 9.4
2018-Jun-23 00:00N 54°27' W 000°22'5 9.4
2018-Jun-22 23:30N 54°24' W 000°16'5 9.5
2018-Jun-22 23:00N 54°21' W 000°10'5 9.7
2018-Jun-22 22:30N 54°17' W 000°05'5 9.8
2018-Jun-22 22:00N 54°14' E 000°01'5 9.9
2018-Jun-22 21:30N 54°10' E 000°06'510.3
2018-Jun-22 21:00N 54°06' E 000°11'510.6
2018-Jun-22 20:30N 54°02' E 000°17'2711.6
2018-Jun-22 18:11N 53°41' E 000°47'212.1
2018-Jun-22 18:00N 53°39' E 000°49'711.3
2018-Jun-22 17:25N 53°34' E 000°55'1710.8
2018-Jun-22 15:49N 53°20' E 001°11'3 9.6
2018-Jun-22 15:30N 53°17' E 001°14'5 9.1
2018-Jun-22 15:00N 53°13' E 001°18'4 8.8
2018-Jun-22 14:30N 53°09' E 001°21'4 8.5
2018-Jun-22 14:00N 53°06' E 001°25'4 8.8
2018-Jun-22 13:30N 53°02' E 001°28'4 8.9
2018-Jun-22 13:00N 52°58' E 001°32'5 9.3
2018-Jun-22 12:30N 52°54' E 001°36'5 9.9
2018-Jun-22 12:00N 52°49' E 001°40'610.6
2018-Jun-22 11:28N 52°45' E 001°45'911.5
2018-Jun-22 10:43N 52°37' E 001°53'312.6
2018-Jun-22 10:30N 52°35' E 001°52'1712.3
2018-Jun-22 09:05N 52°17' E 001°51'112.2
2018-Jun-22 09:00N 52°16' E 001°51'611.9
2018-Jun-22 08:30N 52°10' E 001°51'611.9
2018-Jun-22 08:00N 52°04' E 001°50'611.6
2018-Jun-22 07:30N 51°59' E 001°50'611.0
2018-Jun-22 07:00N 51°53' E 001°49'510.6
2018-Jun-22 06:30N 51°48' E 001°49'510.6
2018-Jun-22 06:00N 51°43' E 001°49'510.0
2018-Jun-22 05:30N 51°38' E 001°49'5 9.8
2018-Jun-22 05:00N 51°33' E 001°47'510.0
2018-Jun-22 04:30N 51°28' E 001°45'5 9.8
2018-Jun-22 04:00N 51°23' E 001°43'4 9.0
2018-Jun-22 03:30N 51°19' E 001°40'4 8.4
2018-Jun-22 03:00N 51°15' E 001°38'4 8.3
2018-Jun-22 02:30N 51°11' E 001°36'4 7.8
2018-Jun-22 02:00N 51°07' E 001°38'4 8.2
2018-Jun-22 01:30N 51°03' E 001°38'5 9.3
2018-Jun-22 01:00N 50°59' E 001°34'5 9.7
2018-Jun-22 00:30N 50°55' E 001°30'1410.4
2018-Jun-21 23:07N 50°43' E 001°19'210.9
2018-Jun-21 22:58N 50°42' E 001°17'1311.2
2018-Jun-21 21:46N 50°33' E 001°00'411.0
2018-Jun-21 21:23N 50°31' E 000°54'4611.4
2018-Jun-21 17:20N 50°18' W 000°15'412.5
2018-Jun-21 17:00N 50°17' W 000°21'  
2018-Jun-18 22:05N 40°29' W 009°48'110.3
2018-Jun-18 22:00N 40°29' W 009°48'510.5
2018-Jun-18 21:29N 40°23' W 009°48'510.6
2018-Jun-18 20:59N 40°18' W 009°48'510.5
2018-Jun-18 20:29N 40°13' W 009°48'510.4
2018-Jun-18 20:00N 40°08' W 009°48'510.7
2018-Jun-18 19:31N 40°02' W 009°48'510.8
2018-Jun-18 19:01N 39°57' W 009°48'510.9
2018-Jun-18 18:31N 39°52' W 009°48'510.7
2018-Jun-18 18:01N 39°46' W 009°48'510.7
2018-Jun-18 17:31N 39°41' W 009°49'510.5
2018-Jun-18 17:01N 39°36' W 009°49'510.2
2018-Jun-18 16:30N 39°30' W 009°49'510.0
2018-Jun-18 16:00N 39°25' W 009°50'510.2
2018-Jun-18 15:31N 39°20' W 009°50'510.6
2018-Jun-18 15:01N 39°15' W 009°50'510.6
2018-Jun-18 14:30N 39°10' W 009°50'510.7
2018-Jun-18 14:00N 39°04' W 009°50'510.4
2018-Jun-18 13:31N 38°59' W 009°50'5 9.8
2018-Jun-18 13:00N 38°54' W 009°50'510.1
2018-Jun-18 12:30N 38°49' W 009°50'510.1
2018-Jun-18 12:00N 38°44' W 009°50'5 9.6
2018-Jun-18 11:31N 38°39' W 009°49'5 9.6
2018-Jun-18 11:01N 38°35' W 009°47'5 9.8
2018-Jun-18 10:30N 38°30' W 009°46'5 9.5
2018-Jun-18 10:01N 38°25' W 009°45'5 9.7
2018-Jun-18 09:30N 38°21' W 009°43'5 9.9
2018-Jun-18 09:01N 38°16' W 009°42'510.0
2018-Jun-18 08:31N 38°11' W 009°40'510.1
2018-Jun-18 08:00N 38°06' W 009°39'510.4
2018-Jun-18 07:30N 38°01' W 009°38'510.5
2018-Jun-18 07:00N 37°56' W 009°36'510.4
2018-Jun-18 06:30N 37°51' W 009°35'510.6
2018-Jun-18 05:59N 37°45' W 009°33'510.7
2018-Jun-18 05:31N 37°40' W 009°32'610.9
2018-Jun-18 05:00N 37°35' W 009°30'511.0
2018-Jun-18 04:31N 37°30' W 009°29'1710.4
2018-Jun-18 02:50N 37°13' W 009°25'310.5
2018-Jun-18 02:30N 37°09' W 009°24'19410.5
2018-Jun-17 08:05N 35°58' W 005°39'1 9.3
2018-Jun-17 08:00N 35°58' W 005°39'5 9.8
2018-Jun-17 07:31N 35°59' W 005°33'5 9.9
2018-Jun-17 06:59N 35°60' W 005°26'4 9.2
2018-Jun-17 06:31N 36°01' W 005°21'4 8.9
2018-Jun-17 06:00N 36°01' W 005°16'5 9.1
2018-Jun-17 05:26N 36°02' W 005°09'19910.6
2018-Jun-16 10:44N 37°07' W 001°15'311.5
2018-Jun-16 10:26N 37°09' W 001°12'811.6
2018-Jun-16 09:47N 37°14' W 001°05'311.6
2018-Jun-16 09:30N 37°16' W 001°01'611.8
2018-Jun-16 08:58N 37°20' W 000°55'512.0
2018-Jun-16 08:30N 37°23' W 000°50'611.7
2018-Jun-16 08:00N 37°27' W 000°44'611.5
2018-Jun-16 07:30N 37°31' W 000°39'612.0
2018-Jun-16 07:01N 37°35' W 000°34'612.2
2018-Jun-16 06:31N 37°40' W 000°29'612.0
2018-Jun-16 05:59N 37°45' W 000°25'612.2
2018-Jun-16 05:30N 37°50' W 000°20'612.0
2018-Jun-16 05:00N 37°55' W 000°16'612.1
2018-Jun-16 04:30N 38°00' W 000°12'612.2
2018-Jun-16 04:01N 38°05' W 000°08'612.3
2018-Jun-16 03:31N 38°10' W 000°04'612.3
2018-Jun-16 03:01N 38°15' E 000°00'612.3
2018-Jun-16 02:31N 38°20' E 000°05'612.2
2018-Jun-16 01:59N 38°26' E 000°09'612.0
2018-Jun-16 01:30N 38°31' E 000°13'611.7
2018-Jun-16 01:01N 38°35' E 000°17'611.5
2018-Jun-16 00:29N 38°40' E 000°22'611.5
2018-Jun-16 00:00N 38°45' E 000°25'611.5
2018-Jun-15 23:31N 38°50' E 000°29'611.4
2018-Jun-15 23:01N 38°55' E 000°32'611.3
2018-Jun-15 22:29N 39°00' E 000°36'1011.0
2018-Jun-15 21:36N 39°09' E 000°42'411.0
2018-Jun-15 21:15N 39°12' E 000°45'411.2
2018-Jun-15 20:55N 39°16' E 000°47'611.1
2018-Jun-15 20:24N 39°21' E 000°50'411.1
2018-Jun-15 20:00N 39°25' E 000°52'510.9
2018-Jun-15 19:31N 39°30' E 000°56'7711.4
2018-Jun-15 12:43N 40°38' E 001°43'312.0
2018-Jun-15 12:30N 40°40' E 001°44'2611.9
2018-Jun-15 10:20N 41°03' E 001°60'411.8
2018-Jun-15 10:00N 41°07' E 002°02'612.0
2018-Jun-15 09:31N 41°12' E 002°06'612.9
2018-Jun-15 09:00N 41°17' E 002°10'4 8.2
2018-Jun-15 08:31N 41°22' E 002°11'0 0.1
2018-Jun-15 06:24N 41°22' E 002°10'0 0.0
2018-Jun-15 05:39N 41°22' E 002°10'0 0.0
2018-Jun-15 05:30N 41°22' E 002°10'0 0.0
2018-Jun-15 05:00N 41°22' E 002°10'0 0.0
2018-Jun-15 04:30N 41°22' E 002°10'0 0.0
2018-Jun-14 22:48N 41°22' E 002°10'0 0.0
2018-Jun-14 22:27N 41°22' E 002°10'0 0.0
2018-Jun-14 21:57N 41°22' E 002°10'0 0.0
2018-Jun-14 21:30N 41°22' E 002°10'0 0.0
2018-Jun-14 19:06N 41°22' E 002°10'0 0.0
2018-Jun-14 18:57N 41°22' E 002°10'0 0.0
2018-Jun-14 18:30N 41°22' E 002°10'0 0.0
2018-Jun-14 16:39N 41°22' E 002°10'0 0.0
2018-Jun-14 16:27N 41°22' E 002°10'0 0.0
2018-Jun-14 15:57N 41°22' E 002°10'0 0.0
2018-Jun-14 14:12N 41°22' E 002°10'0 0.0
2018-Jun-14 13:54N 41°22' E 002°10'0 0.0
2018-Jun-14 13:27N 41°22' E 002°10'0 0.0
2018-Jun-14 12:51N 41°22' E 002°10'0 0.0
2018-Jun-14 12:30N 41°22' E 002°10'0 0.0
2018-Jun-14 11:57N 41°22' E 002°10'0 0.0
2018-Jun-14 11:30N 41°22' E 002°10'0 0.0
2018-Jun-14 10:54N 41°22' E 002°10'0 0.0
2018-Jun-14 10:30N 41°22' E 002°10'0 0.0
2018-Jun-14 10:00N 41°22' E 002°10'0 0.0
2018-Jun-14 09:30N 41°22' E 002°10'0 0.0
2018-Jun-14 09:00N 41°22' E 002°10'0 0.0
2018-Jun-14 08:15N 41°22' E 002°10'0 0.0
2018-Jun-14 08:00N 41°22' E 002°10'0 0.0
2018-Jun-14 07:30N 41°22' E 002°10'0 0.0
2018-Jun-14 04:21N 41°22' E 002°10'0 0.0
2018-Jun-14 03:57N 41°22' E 002°10'0 0.0
2018-Jun-14 03:27N 41°22' E 002°10'0 0.0
2018-Jun-14 03:00N 41°22' E 002°10'0 0.0
2018-Jun-14 02:30N 41°22' E 002°10'0 0.0
2018-Jun-14 01:54N 41°22' E 002°10'0 0.0
2018-Jun-14 01:24N 41°22' E 002°10'0 0.0
2018-Jun-14 01:00N 41°22' E 002°10'0 0.0
2018-Jun-14 00:30N 41°22' E 002°10'0 0.0
2018-Jun-13 23:42N 41°22' E 002°10'0 0.0
2018-Jun-13 23:30N 41°22' E 002°10'0 0.0
2018-Jun-13 23:00N 41°22' E 002°10'0 0.0
2018-Jun-13 22:27N 41°22' E 002°10'0 0.0
2018-Jun-13 21:57N 41°22' E 002°10'0 0.0
2018-Jun-13 21:27N 41°22' E 002°10'0 0.0
2018-Jun-13 20:56N 41°22' E 002°10'0 0.0
2018-Jun-13 20:30N 41°22' E 002°10'0 0.0
2018-Jun-13 20:00N 41°22' E 002°10'0 0.0
2018-Jun-13 19:30N 41°22' E 002°10'0 0.0
2018-Jun-13 18:57N 41°22' E 002°10'0 0.0
2018-Jun-13 18:27N 41°22' E 002°10'0 0.0
2018-Jun-13 17:57N 41°22' E 002°10'0 0.0
2018-Jun-13 17:27N 41°22' E 002°10'0 0.0
2018-Jun-13 16:59N 41°22' E 002°10'0 0.0
2018-Jun-13 16:29N 41°22' E 002°10'0 0.0
2018-Jun-13 16:00N 41°22' E 002°10'0 0.0
2018-Jun-13 15:30N 41°22' E 002°10'2 3.3
2018-Jun-13 15:00N 41°20' E 002°10'4 8.5
2018-Jun-13 14:30N 41°16' E 002°12'611.5
2018-Jun-13 14:00N 41°11' E 002°16'612.1
2018-Jun-13 13:30N 41°07' E 002°21'  
Track history (hours):
 
Tides and Currents Weather Stations Pressure Air Temp Water Temp Dewpoint Dewpoint Depression Visibility Wind Speed Wind Dir Waves Ship Positions

Marietje Andrea

Last reported at 2018-Jun-23 00:23 UTC. Time now 2018-Jun-25 14:15 UTC.
Position N 54°30' W 000°27'.

Length 126 m; draft 7.2 m.

Type: Cargo ship. MMSI: 246649000.

Date/timePositionNaut miles runAvg speedWind from/ knotsBaromVisibWave heightAir tempDewpointWater temp
2018-Jun-23 00:23N 54°30' W 000°27'4 9.4
2018-Jun-23 00:00N 54°27' W 000°22'5 9.4
2018-Jun-22 23:30N 54°24' W 000°16'5 9.5
2018-Jun-22 23:00N 54°21' W 000°10'5 9.7
2018-Jun-22 22:30N 54°17' W 000°05'5 9.8
2018-Jun-22 22:00N 54°14' E 000°01'5 9.9
2018-Jun-22 21:30N 54°10' E 000°06'510.3
2018-Jun-22 21:00N 54°06' E 000°11'510.6
2018-Jun-22 20:30N 54°02' E 000°17'2711.6
2018-Jun-22 18:11N 53°41' E 000°47'212.1
2018-Jun-22 18:00N 53°39' E 000°49'711.3
2018-Jun-22 17:25N 53°34' E 000°55'1710.8
2018-Jun-22 15:49N 53°20' E 001°11'3 9.6
2018-Jun-22 15:30N 53°17' E 001°14'5 9.1
2018-Jun-22 15:00N 53°13' E 001°18'4 8.8
2018-Jun-22 14:30N 53°09' E 001°21'4 8.5
2018-Jun-22 14:00N 53°06' E 001°25'4 8.8
2018-Jun-22 13:30N 53°02' E 001°28'4 8.9
2018-Jun-22 13:00N 52°58' E 001°32'5 9.3
2018-Jun-22 12:30N 52°54' E 001°36'5 9.9
2018-Jun-22 12:00N 52°49' E 001°40'610.6
2018-Jun-22 11:28N 52°45' E 001°45'911.5
2018-Jun-22 10:43N 52°37' E 001°53'312.6
2018-Jun-22 10:30N 52°35' E 001°52'1712.3
2018-Jun-22 09:05N 52°17' E 001°51'112.2
2018-Jun-22 09:00N 52°16' E 001°51'611.9
2018-Jun-22 08:30N 52°10' E 001°51'611.9
2018-Jun-22 08:00N 52°04' E 001°50'611.6
2018-Jun-22 07:30N 51°59' E 001°50'611.0
2018-Jun-22 07:00N 51°53' E 001°49'510.6
2018-Jun-22 06:30N 51°48' E 001°49'510.6
2018-Jun-22 06:00N 51°43' E 001°49'510.0
2018-Jun-22 05:30N 51°38' E 001°49'5 9.8
2018-Jun-22 05:00N 51°33' E 001°47'510.0
2018-Jun-22 04:30N 51°28' E 001°45'5 9.8
2018-Jun-22 04:00N 51°23' E 001°43'4 9.0
2018-Jun-22 03:30N 51°19' E 001°40'4 8.4
2018-Jun-22 03:00N 51°15' E 001°38'4 8.3
2018-Jun-22 02:30N 51°11' E 001°36'4 7.8
2018-Jun-22 02:00N 51°07' E 001°38'4 8.2
2018-Jun-22 01:30N 51°03' E 001°38'5 9.3
2018-Jun-22 01:00N 50°59' E 001°34'5 9.7
2018-Jun-22 00:30N 50°55' E 001°30'1410.4
2018-Jun-21 23:07N 50°43' E 001°19'210.9
2018-Jun-21 22:58N 50°42' E 001°17'1311.2
2018-Jun-21 21:46N 50°33' E 001°00'411.0
2018-Jun-21 21:23N 50°31' E 000°54'4611.4
2018-Jun-21 17:20N 50°18' W 000°15'412.5
2018-Jun-21 17:00N 50°17' W 000°21'  
2018-Jun-18 22:05N 40°29' W 009°48'110.3
2018-Jun-18 22:00N 40°29' W 009°48'510.5
2018-Jun-18 21:29N 40°23' W 009°48'510.6
2018-Jun-18 20:59N 40°18' W 009°48'510.5
2018-Jun-18 20:29N 40°13' W 009°48'510.4
2018-Jun-18 20:00N 40°08' W 009°48'510.7
2018-Jun-18 19:31N 40°02' W 009°48'510.8
2018-Jun-18 19:01N 39°57' W 009°48'510.9
2018-Jun-18 18:31N 39°52' W 009°48'510.7
2018-Jun-18 18:01N 39°46' W 009°48'510.7
2018-Jun-18 17:31N 39°41' W 009°49'510.5
2018-Jun-18 17:01N 39°36' W 009°49'510.2
2018-Jun-18 16:30N 39°30' W 009°49'510.0
2018-Jun-18 16:00N 39°25' W 009°50'510.2
2018-Jun-18 15:31N 39°20' W 009°50'510.6
2018-Jun-18 15:01N 39°15' W 009°50'510.6
2018-Jun-18 14:30N 39°10' W 009°50'510.7
2018-Jun-18 14:00N 39°04' W 009°50'510.4
2018-Jun-18 13:31N 38°59' W 009°50'5 9.8
2018-Jun-18 13:00N 38°54' W 009°50'510.1
2018-Jun-18 12:30N 38°49' W 009°50'510.1
2018-Jun-18 12:00N 38°44' W 009°50'5 9.6
2018-Jun-18 11:31N 38°39' W 009°49'5 9.6
2018-Jun-18 11:01N 38°35' W 009°47'5 9.8
2018-Jun-18 10:30N 38°30' W 009°46'5 9.5
2018-Jun-18 10:01N 38°25' W 009°45'5 9.7
2018-Jun-18 09:30N 38°21' W 009°43'5 9.9
2018-Jun-18 09:01N 38°16' W 009°42'510.0
2018-Jun-18 08:31N 38°11' W 009°40'510.1
2018-Jun-18 08:00N 38°06' W 009°39'510.4
2018-Jun-18 07:30N 38°01' W 009°38'510.5
2018-Jun-18 07:00N 37°56' W 009°36'510.4
2018-Jun-18 06:30N 37°51' W 009°35'510.6
2018-Jun-18 05:59N 37°45' W 009°33'510.7
2018-Jun-18 05:31N 37°40' W 009°32'610.9
2018-Jun-18 05:00N 37°35' W 009°30'511.0
2018-Jun-18 04:31N 37°30' W 009°29'1710.4
2018-Jun-18 02:50N 37°13' W 009°25'310.5
2018-Jun-18 02:30N 37°09' W 009°24'19410.5
2018-Jun-17 08:05N 35°58' W 005°39'1 9.3
2018-Jun-17 08:00N 35°58' W 005°39'5 9.8
2018-Jun-17 07:31N 35°59' W 005°33'5 9.9
2018-Jun-17 06:59N 35°60' W 005°26'4 9.2
2018-Jun-17 06:31N 36°01' W 005°21'4 8.9
2018-Jun-17 06:00N 36°01' W 005°16'5 9.1
2018-Jun-17 05:26N 36°02' W 005°09'19910.6
2018-Jun-16 10:44N 37°07' W 001°15'311.5
2018-Jun-16 10:26N 37°09' W 001°12'811.6
2018-Jun-16 09:47N 37°14' W 001°05'311.6
2018-Jun-16 09:30N 37°16' W 001°01'611.8
2018-Jun-16 08:58N 37°20' W 000°55'512.0
2018-Jun-16 08:30N 37°23' W 000°50'611.7
2018-Jun-16 08:00N 37°27' W 000°44'611.5
2018-Jun-16 07:30N 37°31' W 000°39'612.0
2018-Jun-16 07:01N 37°35' W 000°34'612.2
2018-Jun-16 06:31N 37°40' W 000°29'612.0
2018-Jun-16 05:59N 37°45' W 000°25'612.2
2018-Jun-16 05:30N 37°50' W 000°20'612.0
2018-Jun-16 05:00N 37°55' W 000°16'612.1
2018-Jun-16 04:30N 38°00' W 000°12'612.2
2018-Jun-16 04:01N 38°05' W 000°08'612.3
2018-Jun-16 03:31N 38°10' W 000°04'612.3
2018-Jun-16 03:01N 38°15' E 000°00'612.3
2018-Jun-16 02:31N 38°20' E 000°05'612.2
2018-Jun-16 01:59N 38°26' E 000°09'612.0
2018-Jun-16 01:30N 38°31' E 000°13'611.7
2018-Jun-16 01:01N 38°35' E 000°17'611.5
2018-Jun-16 00:29N 38°40' E 000°22'611.5
2018-Jun-16 00:00N 38°45' E 000°25'611.5
2018-Jun-15 23:31N 38°50' E 000°29'611.4
2018-Jun-15 23:01N 38°55' E 000°32'611.3
2018-Jun-15 22:29N 39°00' E 000°36'1011.0
2018-Jun-15 21:36N 39°09' E 000°42'411.0
2018-Jun-15 21:15N 39°12' E 000°45'411.2
2018-Jun-15 20:55N 39°16' E 000°47'611.1
2018-Jun-15 20:24N 39°21' E 000°50'411.1
2018-Jun-15 20:00N 39°25' E 000°52'510.9
2018-Jun-15 19:31N 39°30' E 000°56'7711.4
2018-Jun-15 12:43N 40°38' E 001°43'312.0
2018-Jun-15 12:30N 40°40' E 001°44'2611.9
2018-Jun-15 10:20N 41°03' E 001°60'411.8
2018-Jun-15 10:00N 41°07' E 002°02'612.0
2018-Jun-15 09:31N 41°12' E 002°06'612.9
2018-Jun-15 09:00N 41°17' E 002°10'4 8.2
2018-Jun-15 08:31N 41°22' E 002°11'0 0.1
2018-Jun-15 06:24N 41°22' E 002°10'0 0.0
2018-Jun-15 05:39N 41°22' E 002°10'0 0.0
2018-Jun-15 05:30N 41°22' E 002°10'0 0.0
2018-Jun-15 05:00N 41°22' E 002°10'0 0.0
2018-Jun-15 04:30N 41°22' E 002°10'0 0.0
2018-Jun-14 22:48N 41°22' E 002°10'0 0.0
2018-Jun-14 22:27N 41°22' E 002°10'0 0.0
2018-Jun-14 21:57N 41°22' E 002°10'0 0.0
2018-Jun-14 21:30N 41°22' E 002°10'0 0.0
2018-Jun-14 19:06N 41°22' E 002°10'0 0.0
2018-Jun-14 18:57N 41°22' E 002°10'0 0.0
2018-Jun-14 18:30N 41°22' E 002°10'0 0.0
2018-Jun-14 16:39N 41°22' E 002°10'0 0.0
2018-Jun-14 16:27N 41°22' E 002°10'0 0.0
2018-Jun-14 15:57N 41°22' E 002°10'0 0.0
2018-Jun-14 14:12N 41°22' E 002°10'0 0.0
2018-Jun-14 13:54N 41°22' E 002°10'0 0.0
2018-Jun-14 13:27N 41°22' E 002°10'0 0.0
2018-Jun-14 12:51N 41°22' E 002°10'0 0.0
2018-Jun-14 12:30N 41°22' E 002°10'0 0.0
2018-Jun-14 11:57N 41°22' E 002°10'0 0.0
2018-Jun-14 11:30N 41°22' E 002°10'0 0.0
2018-Jun-14 10:54N 41°22' E 002°10'0 0.0
2018-Jun-14 10:30N 41°22' E 002°10'0 0.0
2018-Jun-14 10:00N 41°22' E 002°10'0 0.0
2018-Jun-14 09:30N 41°22' E 002°10'0 0.0
2018-Jun-14 09:00N 41°22' E 002°10'0 0.0
2018-Jun-14 08:15N 41°22' E 002°10'0 0.0
2018-Jun-14 08:00N 41°22' E 002°10'0 0.0
2018-Jun-14 07:30N 41°22' E 002°10'0 0.0
2018-Jun-14 04:21N 41°22' E 002°10'0 0.0
2018-Jun-14 03:57N 41°22' E 002°10'0 0.0
2018-Jun-14 03:27N 41°22' E 002°10'0 0.0
2018-Jun-14 03:00N 41°22' E 002°10'0 0.0
2018-Jun-14 02:30N 41°22' E 002°10'0 0.0
2018-Jun-14 01:54N 41°22' E 002°10'0 0.0
2018-Jun-14 01:24N 41°22' E 002°10'0 0.0
2018-Jun-14 01:00N 41°22' E 002°10'0 0.0
2018-Jun-14 00:30N 41°22' E 002°10'0 0.0
2018-Jun-13 23:42N 41°22' E 002°10'0 0.0
2018-Jun-13 23:30N 41°22' E 002°10'0 0.0
2018-Jun-13 23:00N 41°22' E 002°10'0 0.0
2018-Jun-13 22:27N 41°22' E 002°10'0 0.0
2018-Jun-13 21:57N 41°22' E 002°10'0 0.0
2018-Jun-13 21:27N 41°22' E 002°10'0 0.0
2018-Jun-13 20:56N 41°22' E 002°10'0 0.0
2018-Jun-13 20:30N 41°22' E 002°10'0 0.0
2018-Jun-13 20:00N 41°22' E 002°10'0 0.0
2018-Jun-13 19:30N 41°22' E 002°10'0 0.0
2018-Jun-13 18:57N 41°22' E 002°10'0 0.0
2018-Jun-13 18:27N 41°22' E 002°10'0 0.0
2018-Jun-13 17:57N 41°22' E 002°10'0 0.0
2018-Jun-13 17:27N 41°22' E 002°10'0 0.0
2018-Jun-13 16:59N 41°22' E 002°10'0 0.0
2018-Jun-13 16:29N 41°22' E 002°10'0 0.0
2018-Jun-13 16:00N 41°22' E 002°10'0 0.0
2018-Jun-13 15:30N 41°22' E 002°10'2 3.3
2018-Jun-13 15:00N 41°20' E 002°10'4 8.5
2018-Jun-13 14:30N 41°16' E 002°12'611.5
2018-Jun-13 14:00N 41°11' E 002°16'612.1
2018-Jun-13 13:30N 41°07' E 002°21'  

Dump ship's entire track history